createdAt,value
2018-05-06T00:02:13.529Z,23.30
2018-05-06T00:04:42.849Z,23.20
2018-05-06T00:07:11.939Z,23.10
2018-05-06T00:09:41.092Z,23.00
2018-05-06T00:12:10.843Z,22.90
2018-05-06T00:14:39.930Z,22.80
2018-05-06T00:17:09.204Z,22.70
2018-05-06T00:19:38.484Z,22.70
2018-05-06T00:22:07.583Z,22.60
2018-05-06T00:24:36.693Z,22.50
2018-05-06T00:27:06.003Z,22.40
2018-05-06T00:29:35.903Z,22.30
2018-05-06T00:32:05.532Z,22.30
2018-05-06T00:34:35.561Z,22.20
2018-05-06T00:37:05.844Z,22.10
2018-05-06T00:39:34.997Z,22.10
2018-05-06T00:42:04.115Z,22.00
2018-05-06T00:44:33.252Z,21.90
2018-05-06T00:47:02.332Z,21.90
2018-05-06T00:49:32.321Z,21.80
2018-05-06T00:52:01.563Z,21.70
2018-05-06T00:54:42.191Z,21.80
2018-05-06T00:57:11.680Z,21.70
2018-05-06T00:59:40.923Z,21.60
2018-05-06T01:02:11.829Z,21.60
2018-05-06T01:04:41.069Z,21.50
2018-05-06T01:07:10.395Z,21.50
2018-05-06T01:09:44.917Z,21.40
2018-05-06T01:12:14.703Z,21.40
2018-05-06T01:14:44.574Z,21.30
2018-05-06T01:17:13.696Z,21.30
2018-05-06T01:19:42.858Z,21.30
2018-05-06T01:22:12.411Z,21.30
2018-05-06T01:24:42.386Z,21.20
2018-05-06T01:27:11.574Z,21.20
2018-05-06T01:29:40.756Z,21.30
2018-05-06T01:32:10.005Z,21.20
2018-05-06T01:34:39.097Z,21.10
2018-05-06T01:37:08.214Z,21.10
2018-05-06T01:39:37.377Z,21.10
2018-05-06T01:42:06.589Z,21.10
2018-05-06T01:44:35.683Z,21.10
2018-05-06T01:47:04.835Z,21.00
2018-05-06T01:49:34.007Z,21.00
2018-05-06T01:52:03.086Z,20.90
2018-05-06T01:54:32.303Z,20.90
2018-05-06T01:57:01.550Z,20.80
2018-05-06T01:59:30.698Z,20.80
2018-05-06T02:01:59.794Z,20.80
2018-05-06T02:04:28.923Z,20.80
2018-05-06T02:06:58.135Z,20.80
2018-05-06T02:09:27.281Z,20.70
2018-05-06T02:11:56.506Z,20.70
2018-05-06T02:14:26.089Z,20.70
2018-05-06T02:16:55.286Z,20.60
2018-05-06T02:19:24.471Z,20.60
2018-05-06T02:21:53.753Z,20.50
2018-05-06T02:24:22.834Z,20.50
2018-05-06T02:26:52.867Z,20.40
2018-05-06T02:29:21.940Z,20.30
2018-05-06T02:31:51.347Z,20.30
2018-05-06T02:34:21.366Z,20.20
2018-05-06T02:36:50.502Z,20.20
2018-05-06T02:39:19.745Z,20.20
2018-05-06T02:41:49.802Z,20.10
2018-05-06T02:44:18.976Z,20.10
2018-05-06T02:46:49.112Z,20.10
2018-05-06T02:49:18.228Z,20.10
2018-05-06T02:51:47.533Z,20.00
2018-05-06T02:54:16.820Z,20.00
2018-05-06T02:56:45.916Z,20.00
2018-05-06T02:59:16.048Z,19.90
2018-05-06T03:01:45.609Z,19.90
2018-05-06T03:04:14.792Z,19.90
2018-05-06T03:06:47.510Z,19.80
2018-05-06T03:09:16.742Z,19.80
2018-05-06T03:11:45.925Z,19.80
2018-05-06T03:14:15.023Z,19.80
2018-05-06T03:16:44.642Z,19.70
2018-05-06T03:19:13.890Z,19.70
2018-05-06T03:21:43.107Z,19.70
2018-05-06T03:24:12.181Z,19.70
2018-05-06T03:26:42.535Z,19.60
2018-05-06T03:29:11.707Z,19.50
2018-05-06T03:31:40.845Z,19.50
2018-05-06T03:34:10.847Z,19.40
2018-05-06T03:36:39.994Z,19.40
2018-05-06T03:39:09.127Z,19.30
2018-05-06T03:41:38.878Z,19.20
2018-05-06T03:44:08.218Z,19.20
2018-05-06T03:46:37.361Z,19.20
2018-05-06T03:49:06.746Z,19.10
2018-05-06T03:51:35.870Z,19.10
2018-05-06T03:54:05.792Z,19.10
2018-05-06T03:56:56.471Z,19.00
2018-05-06T03:59:36.845Z,19.00
2018-05-06T04:15:51.096Z,18.80
2018-05-06T04:18:20.982Z,18.70
2018-05-06T04:20:50.207Z,18.70
2018-05-06T04:23:19.447Z,18.70
2018-05-06T04:25:48.601Z,18.70
2018-05-06T04:28:17.720Z,18.60
2018-05-06T04:30:46.998Z,18.60
2018-05-06T04:33:16.884Z,18.60
2018-05-06T04:35:46.010Z,18.50
2018-05-06T04:38:15.187Z,18.50
2018-05-06T04:40:45.109Z,18.60
2018-05-06T04:43:15.016Z,18.60
2018-05-06T04:45:45.029Z,18.50
2018-05-06T04:48:14.134Z,18.50
2018-05-06T04:50:43.273Z,18.50
2018-05-06T04:53:12.360Z,18.50
2018-05-06T04:55:41.672Z,18.50
2018-05-06T04:58:10.758Z,18.40
2018-05-06T05:00:39.926Z,18.40
2018-05-06T05:03:09.003Z,18.40
2018-05-06T05:05:38.157Z,18.40
2018-05-06T05:08:07.294Z,18.30
2018-05-06T05:10:36.478Z,18.30
2018-05-06T05:13:06.401Z,18.30
2018-05-06T05:15:35.566Z,18.20
2018-05-06T05:18:04.699Z,18.30
2018-05-06T05:20:34.350Z,18.20
2018-05-06T05:23:03.399Z,18.10
2018-05-06T05:25:32.524Z,18.10
2018-05-06T05:28:01.648Z,18.00
2018-05-06T05:30:30.956Z,18.10
2018-05-06T05:33:00.078Z,18.10
2018-05-06T05:35:30.051Z,18.00
2018-05-06T05:37:59.172Z,18.00
2018-05-06T05:40:28.537Z,17.90
2018-05-06T05:42:57.708Z,17.90
2018-05-06T05:45:27.954Z,17.80
2018-05-06T05:47:57.157Z,17.80
2018-05-06T05:50:26.347Z,17.80
2018-05-06T05:52:56.160Z,17.70
2018-05-06T05:55:25.357Z,17.80
2018-05-06T05:57:54.425Z,17.70
2018-05-06T06:00:23.522Z,17.70
2018-05-06T06:02:52.785Z,17.70
2018-05-06T06:05:21.919Z,17.70
2018-05-06T06:07:51.219Z,17.70
2018-05-06T06:10:20.522Z,17.60
2018-05-06T06:12:49.645Z,17.60
2018-05-06T06:15:18.727Z,17.60
2018-05-06T06:17:47.980Z,17.60
2018-05-06T06:20:17.179Z,17.60
2018-05-06T06:22:46.569Z,17.60
2018-05-06T06:25:16.659Z,17.60
2018-05-06T06:27:45.883Z,17.60
2018-05-06T06:30:14.968Z,17.50
2018-05-06T06:32:44.854Z,17.40
2018-05-06T06:35:13.996Z,17.40
2018-05-06T06:37:43.721Z,17.40
2018-05-06T06:40:12.866Z,17.40
2018-05-06T06:42:41.974Z,17.40
2018-05-06T06:45:11.941Z,17.30
2018-05-06T06:47:41.085Z,17.30
2018-05-06T06:50:10.425Z,17.30
2018-05-06T06:52:39.502Z,17.30
2018-05-06T06:55:08.760Z,17.30
2018-05-06T06:57:37.859Z,17.20
2018-05-06T07:00:06.959Z,17.20
2018-05-06T07:02:36.081Z,17.20
2018-05-06T07:05:05.361Z,17.10
2018-05-06T07:07:35.237Z,17.00
2018-05-06T07:10:04.432Z,17.00
2018-05-06T07:12:33.623Z,17.00
2018-05-06T07:15:02.824Z,17.00
2018-05-06T07:17:31.985Z,17.00
2018-05-06T07:20:01.105Z,17.00
2018-05-06T07:22:30.908Z,17.00
2018-05-06T07:25:00.441Z,17.00
2018-05-06T07:27:29.542Z,17.00
2018-05-06T07:29:59.521Z,16.90
2018-05-06T07:32:28.749Z,16.90
2018-05-06T07:34:57.827Z,16.90
2018-05-06T07:37:26.884Z,16.90
2018-05-06T07:39:55.966Z,16.90
2018-05-06T07:42:25.178Z,16.90
2018-05-06T07:44:54.287Z,16.80
2018-05-06T07:47:23.625Z,16.70
2018-05-06T07:49:52.819Z,16.80
2018-05-06T07:52:21.986Z,16.70
2018-05-06T07:54:51.175Z,16.70
2018-05-06T07:57:20.333Z,16.70
2018-05-06T07:59:50.217Z,16.60
2018-05-06T08:02:19.389Z,16.60
2018-05-06T08:04:48.458Z,16.70
2018-05-06T08:07:17.550Z,16.60
2018-05-06T08:09:46.731Z,16.60
2018-05-06T08:12:15.846Z,16.60
2018-05-06T08:14:44.991Z,16.60
2018-05-06T08:17:14.069Z,16.60
2018-05-06T08:19:43.168Z,16.50
2018-05-06T08:22:12.315Z,16.50
2018-05-06T08:24:41.461Z,16.50
2018-05-06T08:27:11.039Z,16.50
2018-05-06T08:29:40.154Z,16.50
2018-05-06T08:32:09.306Z,16.50
2018-05-06T08:34:38.435Z,16.60
2018-05-06T08:37:07.505Z,16.70
2018-05-06T08:39:36.664Z,16.80
2018-05-06T08:42:05.778Z,16.70
2018-05-06T08:44:34.841Z,16.70
2018-05-06T08:47:03.969Z,16.60
2018-05-06T08:49:33.043Z,16.60
2018-05-06T08:52:02.153Z,16.50
2018-05-06T08:54:32.137Z,16.50
2018-05-06T08:57:01.288Z,16.40
2018-05-06T08:59:30.458Z,16.40
2018-05-06T09:01:59.577Z,16.40
2018-05-06T09:04:28.793Z,16.40
2018-05-06T09:06:57.944Z,16.40
2018-05-06T09:09:27.830Z,16.40
2018-05-06T09:11:56.995Z,16.30
2018-05-06T09:14:26.185Z,16.40
2018-05-06T09:16:55.463Z,16.40
2018-05-06T09:19:24.619Z,16.50
2018-05-06T09:21:53.786Z,16.40
2018-05-06T09:24:22.889Z,16.40
2018-05-06T09:26:52.025Z,16.40
2018-05-06T09:29:22.177Z,16.40
2018-05-06T09:31:51.289Z,16.40
2018-05-06T09:34:20.581Z,16.30
2018-05-06T09:36:49.798Z,16.40
2018-05-06T09:39:18.929Z,16.30
2018-05-06T09:41:48.004Z,16.30
2018-05-06T09:44:17.141Z,16.30
2018-05-06T09:46:46.367Z,16.30
2018-05-06T09:49:15.459Z,16.40
2018-05-06T09:51:44.777Z,16.40
2018-05-06T09:54:14.086Z,16.50
2018-05-06T09:56:43.181Z,16.50
2018-05-06T09:59:12.393Z,16.60
2018-05-06T10:01:41.506Z,16.70
2018-05-06T10:04:10.625Z,16.70
2018-05-06T10:06:39.716Z,16.80
2018-05-06T10:09:08.779Z,16.80
2018-05-06T10:11:37.972Z,16.80
2018-05-06T10:14:07.110Z,16.80
2018-05-06T10:16:36.212Z,16.80
2018-05-06T10:19:05.340Z,16.80
2018-05-06T10:21:34.448Z,16.70
2018-05-06T10:24:04.427Z,16.70
2018-05-06T10:26:33.645Z,16.60
2018-05-06T10:29:03.569Z,16.60
2018-05-06T10:31:34.270Z,16.60
2018-05-06T10:34:04.377Z,16.60
2018-05-06T10:36:33.481Z,16.50
2018-05-06T10:39:02.637Z,16.50
2018-05-06T10:41:31.785Z,16.50
2018-05-06T10:44:00.986Z,16.50
2018-05-06T10:46:30.076Z,16.40
2018-05-06T10:48:59.309Z,16.40
2018-05-06T10:51:28.532Z,16.40
2018-05-06T10:53:57.645Z,16.30
2018-05-06T10:56:27.169Z,16.40
2018-05-06T10:58:56.293Z,16.40
2018-05-06T11:01:25.343Z,16.40
2018-05-06T11:03:54.466Z,16.50
2018-05-06T11:06:23.579Z,16.50
2018-05-06T11:08:52.875Z,16.60
2018-05-06T11:11:22.050Z,16.70
2018-05-06T11:13:51.107Z,16.70
2018-05-06T11:16:20.192Z,16.80
2018-05-06T11:18:49.335Z,16.80
2018-05-06T11:21:18.480Z,16.80
2018-05-06T11:23:47.776Z,16.80
2018-05-06T11:26:17.659Z,16.70
2018-05-06T11:28:47.024Z,16.70
2018-05-06T11:31:16.097Z,16.70
2018-05-06T11:33:45.649Z,16.60
2018-05-06T11:36:14.826Z,16.50
2018-05-06T11:38:43.870Z,16.50
2018-05-06T11:41:13.388Z,16.50
2018-05-06T11:43:42.519Z,16.40
2018-05-06T11:46:11.656Z,16.40
2018-05-06T11:48:40.799Z,16.40
2018-05-06T11:51:09.955Z,16.40
2018-05-06T11:53:39.100Z,16.50
2018-05-06T11:56:08.245Z,16.50
2018-05-06T11:58:37.368Z,16.50
2018-05-06T12:01:07.261Z,16.50
2018-05-06T12:03:36.455Z,16.50
2018-05-06T12:06:05.548Z,16.50
2018-05-06T12:08:34.845Z,16.50
2018-05-06T12:11:04.684Z,16.50
2018-05-06T12:13:33.862Z,16.50
2018-05-06T12:16:03.598Z,16.50
2018-05-06T12:18:33.704Z,16.50
2018-05-06T12:21:04.538Z,16.50
2018-05-06T12:23:33.772Z,16.50
2018-05-06T12:26:02.895Z,16.60
2018-05-06T12:28:31.987Z,16.60
2018-05-06T12:31:01.091Z,16.60
2018-05-06T12:33:31.188Z,16.60
2018-05-06T12:36:01.790Z,16.70
2018-05-06T12:38:31.036Z,16.70
2018-05-06T12:41:00.139Z,16.80
2018-05-06T12:43:29.354Z,16.90
2018-05-06T12:45:58.623Z,16.90
2018-05-06T12:48:27.724Z,17.10
2018-05-06T12:50:56.923Z,17.20
2018-05-06T12:53:26.792Z,17.50
2018-05-06T12:55:56.859Z,17.70
2018-05-06T12:58:26.005Z,17.70
2018-05-06T13:00:55.802Z,17.80
2018-05-06T13:03:24.931Z,17.90
2018-05-06T13:05:54.918Z,18.00
2018-05-06T13:08:24.157Z,18.00
2018-05-06T13:10:54.362Z,18.00
2018-05-06T13:13:38.096Z,18.10
2018-05-06T13:16:07.345Z,18.10
2018-05-06T13:18:36.487Z,18.30
2018-05-06T13:21:10.675Z,18.30
2018-05-06T13:23:41.205Z,18.40
2018-05-06T13:26:10.431Z,18.40
2018-05-06T13:28:40.883Z,18.50
2018-05-06T13:31:10.007Z,18.60
2018-05-06T13:33:39.104Z,18.70
2018-05-06T13:36:08.411Z,18.80
2018-05-06T13:38:39.225Z,18.90
2018-05-06T13:41:09.311Z,19.30
2018-05-06T13:43:38.548Z,19.20
2018-05-06T13:46:07.690Z,19.40
2018-05-06T13:48:36.878Z,19.50
2018-05-06T13:51:06.039Z,19.60
2018-05-06T13:53:35.296Z,19.60
2018-05-06T13:56:04.497Z,19.70
2018-05-06T13:58:33.622Z,19.90
2018-05-06T14:01:02.812Z,20.10
2018-05-06T14:03:31.925Z,20.20
2018-05-06T14:06:01.019Z,20.30
2018-05-06T14:08:30.245Z,20.50
2018-05-06T14:10:59.490Z,20.70
2018-05-06T14:13:29.372Z,20.60
2018-05-06T14:16:01.458Z,20.50
2018-05-06T14:18:30.662Z,20.60
2018-05-06T14:21:00.597Z,20.80
2018-05-06T14:23:29.831Z,21.00
2018-05-06T14:25:59.946Z,21.10
2018-05-06T14:28:29.139Z,21.20
2018-05-06T14:30:59.928Z,21.10
2018-05-06T14:33:29.961Z,21.40
2018-05-06T14:35:59.171Z,21.30
2018-05-06T14:38:28.991Z,21.70
2018-05-06T14:40:58.849Z,22.60
2018-05-06T14:43:28.459Z,22.50
2018-05-06T14:45:57.608Z,22.60
2018-05-06T14:48:26.785Z,22.80
2018-05-06T14:50:56.785Z,23.20
2018-05-06T14:53:25.935Z,23.80
2018-05-06T14:55:55.074Z,24.40
2018-05-06T14:58:24.302Z,24.90
2018-05-06T15:00:53.395Z,25.30
2018-05-06T15:03:22.509Z,25.50
2018-05-06T15:05:51.645Z,25.50
2018-05-06T15:08:21.543Z,25.90
2018-05-06T15:10:52.344Z,26.20
2018-05-06T15:13:21.749Z,26.10
2018-05-06T15:15:50.936Z,26.10
2018-05-06T15:18:27.921Z,25.90
2018-05-06T15:20:57.057Z,25.70
2018-05-06T15:23:27.028Z,25.60
2018-05-06T15:25:56.150Z,25.50
2018-05-06T15:28:25.440Z,25.20
2018-05-06T15:30:55.469Z,24.90
2018-05-06T15:33:26.232Z,25.10
2018-05-06T15:35:55.356Z,24.90
2018-05-06T15:38:25.588Z,24.70
2018-05-06T15:40:55.713Z,24.70
2018-05-06T15:43:25.209Z,24.70
2018-05-06T15:45:54.440Z,25.00
2018-05-06T15:48:23.614Z,25.30
2018-05-06T15:50:53.607Z,25.30
2018-05-06T15:53:22.817Z,24.90
2018-05-06T15:55:52.015Z,25.30
2018-05-06T15:58:21.392Z,25.20
2018-05-06T16:00:51.433Z,25.10
2018-05-06T16:03:32.139Z,25.10
2018-05-06T16:06:01.461Z,25.20
2018-05-06T16:08:31.340Z,25.40
2018-05-06T16:11:00.494Z,25.40
2018-05-06T16:13:29.613Z,25.50
2018-05-06T16:15:59.812Z,25.50
2018-05-06T16:18:38.760Z,25.40
2018-05-06T16:21:07.857Z,25.40
2018-05-06T16:23:37.062Z,25.10
2018-05-06T16:26:06.178Z,25.10
2018-05-06T16:28:35.417Z,25.20
2018-05-06T16:31:04.594Z,25.20
2018-05-06T16:33:33.933Z,25.20
2018-05-06T16:36:04.623Z,25.00
2018-05-06T16:38:34.827Z,25.00
2018-05-06T16:41:05.843Z,24.80
2018-05-06T16:43:35.073Z,24.80
2018-05-06T16:46:05.824Z,24.90
2018-05-06T16:48:35.105Z,24.90
2018-05-06T16:51:04.501Z,24.90
2018-05-06T16:53:37.957Z,24.70
2018-05-06T16:56:07.180Z,24.50
2018-05-06T16:58:37.922Z,24.20
2018-05-06T17:01:07.179Z,24.10
2018-05-06T17:03:36.548Z,24.10
2018-05-06T17:06:06.259Z,24.20
2018-05-06T17:08:35.389Z,24.50
2018-05-06T17:11:04.564Z,24.60
2018-05-06T17:13:33.889Z,24.80
2018-05-06T17:16:03.091Z,24.90
2018-05-06T17:18:32.296Z,25.10
2018-05-06T17:21:01.409Z,25.20
2018-05-06T17:23:30.570Z,25.30
2018-05-06T17:25:59.783Z,25.10
2018-05-06T17:28:28.903Z,25.20
2018-05-06T17:30:58.072Z,25.20
2018-05-06T17:33:28.281Z,25.10
2018-05-06T17:35:57.451Z,25.20
2018-05-06T17:38:26.578Z,25.50
2018-05-06T17:40:56.639Z,25.60
2018-05-06T17:43:26.213Z,25.60
2018-05-06T17:45:56.330Z,25.60
2018-05-06T17:48:25.457Z,25.60
2018-05-06T17:50:54.581Z,25.90
2018-05-06T17:53:26.800Z,26.10
2018-05-06T17:55:56.203Z,26.40
2018-05-06T17:58:25.623Z,26.60
2018-05-06T18:00:54.884Z,26.80
2018-05-06T18:03:24.102Z,26.90
2018-05-06T18:05:53.262Z,26.70
2018-05-06T18:08:22.413Z,26.70
2018-05-06T18:10:51.523Z,26.80
2018-05-06T18:13:20.728Z,26.70
2018-05-06T18:15:50.369Z,26.70
2018-05-06T18:18:19.517Z,26.60
2018-05-06T18:20:49.408Z,26.60
2018-05-06T18:23:18.574Z,26.50
2018-05-06T18:25:47.741Z,26.60
2018-05-06T18:28:16.932Z,26.90
2018-05-06T18:30:46.054Z,27.40
2018-05-06T18:33:15.383Z,27.30
2018-05-06T18:35:46.404Z,27.10
2018-05-06T18:38:16.122Z,27.10
2018-05-06T18:40:46.106Z,26.50
2018-05-06T18:43:15.255Z,26.50
2018-05-06T18:45:44.405Z,26.70
2018-05-06T18:48:13.599Z,26.80
2018-05-06T18:50:42.772Z,26.80
2018-05-06T18:53:11.907Z,26.60
2018-05-06T18:55:41.133Z,26.30
2018-05-06T18:58:10.701Z,26.50
2018-05-06T19:00:40.601Z,26.50
2018-05-06T19:03:11.675Z,26.40
2018-05-06T19:05:41.742Z,26.00
2018-05-06T19:08:11.102Z,26.00
2018-05-06T19:10:40.225Z,25.90
2018-05-06T19:13:09.403Z,25.80
2018-05-06T19:15:38.666Z,25.60
2018-05-06T19:18:07.870Z,25.50
2018-05-06T19:20:37.857Z,25.50
2018-05-06T19:23:08.804Z,25.40
2018-05-06T19:25:38.490Z,25.20
2018-05-06T19:28:07.687Z,25.20
2018-05-06T19:30:37.534Z,24.90
2018-05-06T19:33:06.711Z,25.00
2018-05-06T19:35:35.966Z,25.10
2018-05-06T19:38:05.163Z,25.20
2018-05-06T19:40:34.324Z,25.20
2018-05-06T19:43:04.538Z,25.10
2018-05-06T19:45:33.812Z,25.10
2018-05-06T19:48:02.981Z,25.30
2018-05-06T19:50:32.164Z,25.40
2018-05-06T19:53:01.484Z,25.80
2018-05-06T19:55:30.869Z,25.90
2018-05-06T19:58:00.314Z,26.10
2018-05-06T20:00:30.237Z,26.40
2018-05-06T20:02:59.358Z,26.20
2018-05-06T20:05:28.576Z,26.10
2018-05-06T20:07:57.777Z,26.00
2018-05-06T20:10:28.031Z,26.10
2018-05-06T20:12:58.043Z,26.10
2018-05-06T20:15:27.359Z,26.00
2018-05-06T20:17:56.549Z,26.10
2018-05-06T20:20:25.706Z,26.10
2018-05-06T20:22:54.971Z,26.10
2018-05-06T20:25:24.630Z,26.80
2018-05-06T20:27:53.775Z,27.60
2018-05-06T20:30:22.948Z,28.30
2018-05-06T20:32:52.019Z,28.40
2018-05-06T20:35:21.211Z,29.00
2018-05-06T20:37:50.357Z,29.40
2018-05-06T20:40:19.494Z,29.60
2018-05-06T20:42:48.608Z,29.70
2018-05-06T20:45:17.714Z,29.70
2018-05-06T20:47:46.876Z,29.50
2018-05-06T20:50:15.981Z,29.90
2018-05-06T20:52:45.137Z,29.30
2018-05-06T20:55:14.355Z,29.10
2018-05-06T20:57:43.420Z,29.20
2018-05-06T21:00:13.302Z,28.70
2018-05-06T21:02:42.506Z,28.70
2018-05-06T21:05:11.601Z,28.20
2018-05-06T21:07:40.821Z,27.80
2018-05-06T21:10:10.035Z,27.20
2018-05-06T21:12:39.108Z,27.00
2018-05-06T21:15:08.261Z,27.00
2018-05-06T21:17:37.376Z,26.90
2018-05-06T21:20:06.699Z,26.60
2018-05-06T21:22:35.853Z,26.40
2018-05-06T21:25:05.708Z,26.30
2018-05-06T21:27:36.516Z,25.90
2018-05-06T21:30:05.724Z,25.80
2018-05-06T21:32:34.787Z,25.80
2018-05-06T21:35:03.962Z,25.70
2018-05-06T21:37:33.120Z,25.50
2018-05-06T21:40:02.254Z,25.50
2018-05-06T21:42:32.368Z,25.50
2018-05-06T21:45:01.519Z,25.50
2018-05-06T21:47:31.580Z,25.50
2018-05-06T21:50:00.787Z,25.50
2018-05-06T21:52:29.953Z,25.40
2018-05-06T21:54:59.155Z,25.20
2018-05-06T21:57:28.311Z,24.90
2018-05-06T21:59:57.564Z,24.90
2018-05-06T22:02:26.765Z,24.90
2018-05-06T22:04:55.935Z,25.00
2018-05-06T22:07:25.131Z,24.80
2018-05-06T22:09:54.262Z,24.70
2018-05-06T22:12:24.691Z,24.50
2018-05-06T22:14:53.926Z,24.60
2018-05-06T22:17:23.124Z,24.50
2018-05-06T22:19:52.217Z,24.40
2018-05-06T22:22:21.311Z,24.50
2018-05-06T22:24:50.440Z,24.30
2018-05-06T22:27:19.613Z,24.20
2018-05-06T22:29:51.608Z,24.20
2018-05-06T22:32:20.729Z,24.20
2018-05-06T22:34:49.818Z,24.20
2018-05-06T22:37:19.009Z,24.20
2018-05-06T22:39:48.182Z,24.10
2018-05-06T22:42:17.320Z,24.10
2018-05-06T22:44:46.544Z,23.80
2018-05-06T22:47:15.748Z,23.70
2018-05-06T22:49:44.887Z,23.70
2018-05-06T22:52:13.992Z,23.60
2018-05-06T22:54:43.132Z,23.60
2018-05-06T22:57:16.050Z,23.60
2018-05-06T22:59:45.158Z,23.70
2018-05-06T23:02:14.347Z,23.80
2018-05-06T23:04:43.520Z,23.80
2018-05-06T23:07:12.619Z,23.70
2018-05-06T23:09:41.721Z,23.50
2018-05-06T23:12:16.521Z,23.40
2018-05-06T23:14:48.638Z,23.30
2018-05-06T23:17:17.831Z,23.20
2018-05-06T23:19:46.924Z,23.20
2018-05-06T23:22:16.093Z,23.10
2018-05-06T23:24:45.411Z,23.20
2018-05-06T23:27:14.587Z,23.10
2018-05-06T23:29:43.652Z,23.10
2018-05-06T23:32:13.207Z,23.00
2018-05-06T23:34:42.421Z,23.00
2018-05-06T23:37:12.431Z,22.90
2018-05-06T23:39:41.573Z,22.80
2018-05-06T23:42:10.818Z,22.70
2018-05-06T23:44:40.213Z,22.60
2018-05-06T23:47:09.497Z,22.50
2018-05-06T23:49:38.671Z,22.40
2018-05-06T23:52:07.835Z,22.30
2018-05-06T23:54:36.953Z,22.30
2018-05-06T23:57:06.098Z,22.20
2018-05-06T23:59:35.286Z,22.10
